createdAt,value
2019-02-05T00:00:36.356Z,102230.44
2019-02-05T00:05:49.832Z,102226.13
2019-02-05T00:11:05.446Z,102224.83
2019-02-05T00:16:16.229Z,102237.37
2019-02-05T00:21:28.261Z,102247.80
2019-02-05T00:26:42.769Z,102230.58
2019-02-05T00:31:51.738Z,102248.25
2019-02-05T00:37:07.588Z,102238.70
2019-02-05T00:42:16.070Z,102253.87
2019-02-05T00:47:26.846Z,102255.19
2019-02-05T00:52:38.507Z,102260.41
2019-02-05T00:57:56.843Z,102262.94
2019-02-05T01:03:04.214Z,102259.11
2019-02-05T01:08:12.979Z,102271.20
2019-02-05T01:13:24.720Z,102283.28
2019-02-05T01:18:33.978Z,102268.20
2019-02-05T01:23:42.346Z,102273.87
2019-02-05T01:28:51.110Z,102276.38
2019-02-05T01:33:59.726Z,102276.81
2019-02-05T01:39:09.673Z,102282.52
2019-02-05T01:44:23.436Z,102279.62
2019-02-05T01:49:34.777Z,102278.73
2019-02-05T01:54:42.149Z,102272.75
2019-02-05T01:59:52.978Z,102276.14
2019-02-05T02:05:02.202Z,102277.36
2019-02-05T02:10:12.209Z,102281.30
2019-02-05T02:15:24.748Z,102294.69
2019-02-05T02:20:36.202Z,102291.29
2019-02-05T02:25:45.193Z,102289.56
2019-02-05T02:30:52.611Z,102284.92
2019-02-05T02:36:04.399Z,102285.30
2019-02-05T02:41:21.646Z,102285.67
2019-02-05T02:46:32.550Z,102292.18
2019-02-05T02:51:45.483Z,102297.45
2019-02-05T02:57:04.918Z,102299.55
2019-02-05T03:02:13.542Z,102290.10
2019-02-05T03:07:25.554Z,102291.37
2019-02-05T03:12:35.650Z,102293.98
2019-02-05T03:17:52.070Z,102296.96
2019-02-05T03:23:01.094Z,102302.14
2019-02-05T03:28:12.841Z,102308.16
2019-02-05T03:33:22.852Z,102283.92
2019-02-05T03:38:29.707Z,102304.81
2019-02-05T03:43:39.524Z,102318.73
2019-02-05T03:48:56.100Z,102314.81
2019-02-05T03:54:16.299Z,102310.05
2019-02-05T03:59:44.330Z,102318.29
2019-02-05T04:05:28.313Z,102326.04
2019-02-05T04:11:19.588Z,102328.20
2019-02-05T04:17:34.902Z,102333.73
2019-02-05T04:22:59.751Z,102338.08
2019-02-05T04:28:31.496Z,102329.44
2019-02-05T04:33:59.015Z,102331.19
2019-02-05T04:39:50.194Z,102333.61
2019-02-05T04:45:53.002Z,102323.15
2019-02-05T04:51:29.930Z,102320.91
2019-02-05T04:57:20.379Z,102319.99
2019-02-05T05:02:55.447Z,102340.70
2019-02-05T05:08:52.207Z,102345.42
2019-02-05T05:14:05.670Z,102343.70
2019-02-05T05:19:19.399Z,102344.12
2019-02-05T05:24:35.046Z,102347.17
2019-02-05T05:29:46.828Z,102353.23
2019-02-05T05:35:01.578Z,102358.50
2019-02-05T05:40:11.018Z,102359.45
2019-02-05T05:45:24.945Z,102370.77
2019-02-05T05:50:33.080Z,102370.66
2019-02-05T05:55:48.138Z,102373.13
2019-02-05T06:01:02.054Z,102387.02
2019-02-05T06:06:16.101Z,102387.47
2019-02-05T06:11:45.050Z,102399.08
2019-02-05T06:16:55.596Z,102392.54
2019-02-05T06:22:08.334Z,102395.59
2019-02-05T06:27:18.681Z,102399.05
2019-02-05T06:32:30.542Z,102405.93
2019-02-05T06:37:41.405Z,102402.97
2019-02-05T06:42:55.028Z,102405.09
2019-02-05T06:48:24.945Z,102405.96
2019-02-05T06:53:33.497Z,102405.06
2019-02-05T06:58:46.398Z,102413.73
2019-02-05T07:03:54.612Z,102416.73
2019-02-05T07:09:04.795Z,102427.47
2019-02-05T07:14:15.769Z,102446.57
2019-02-05T07:19:26.766Z,102447.03
2019-02-05T07:24:41.331Z,102453.52
2019-02-05T07:29:54.199Z,102461.85
2019-02-05T07:35:03.646Z,102463.70
2019-02-05T07:40:15.400Z,102456.27
2019-02-05T07:45:26.651Z,102471.45
2019-02-05T07:50:35.841Z,102480.09
2019-02-05T07:55:47.153Z,102479.27
2019-02-05T08:01:02.866Z,102472.38
2019-02-05T08:06:12.904Z,102478.86
2019-02-05T08:11:27.664Z,102482.23
2019-02-05T08:16:38.591Z,102485.78
2019-02-05T08:21:49.252Z,102497.02
2019-02-05T08:26:58.444Z,102501.86
2019-02-05T08:32:08.810Z,102506.16
2019-02-05T08:37:24.333Z,102507.91
2019-02-05T08:42:35.417Z,102507.95
2019-02-05T08:47:43.768Z,102513.16
2019-02-05T08:52:51.522Z,102519.00
2019-02-05T08:58:05.305Z,102520.70
2019-02-05T09:03:14.065Z,102529.91
2019-02-05T09:08:27.612Z,102526.62
2019-02-05T09:13:40.054Z,102531.75
2019-02-05T09:18:54.040Z,102529.81
2019-02-05T09:24:06.857Z,102550.97
2019-02-05T09:29:18.966Z,102557.98
2019-02-05T09:34:34.392Z,102558.50
2019-02-05T09:39:48.210Z,102560.45
2019-02-05T09:45:00.048Z,102569.99
2019-02-05T09:50:31.048Z,102571.69
2019-02-05T09:55:41.320Z,102582.41
2019-02-05T10:00:52.300Z,102581.14
2019-02-05T10:06:04.531Z,102587.50
2019-02-05T10:11:17.841Z,102582.42
2019-02-05T10:16:29.967Z,102584.70
2019-02-05T10:21:40.019Z,102586.41
2019-02-05T10:26:51.869Z,102588.64
2019-02-05T10:32:03.758Z,102599.12
2019-02-05T10:37:16.492Z,102592.22
2019-02-05T10:42:31.091Z,102594.05
2019-02-05T10:47:41.042Z,102598.41
2019-02-05T10:52:59.501Z,102610.02
2019-02-05T10:58:13.649Z,102620.84
2019-02-05T11:03:23.174Z,102613.34
2019-02-05T11:08:39.264Z,102618.16
2019-02-05T11:13:52.904Z,102616.45
2019-02-05T11:19:06.743Z,102608.77
2019-02-05T11:24:18.820Z,102612.70
2019-02-05T11:29:35.895Z,102607.91
2019-02-05T11:34:48.627Z,102608.95
2019-02-05T11:40:04.787Z,102617.08
2019-02-05T11:45:19.758Z,102608.80
2019-02-05T11:50:32.620Z,102608.86
2019-02-05T11:55:44.662Z,102602.80
2019-02-05T12:00:57.840Z,102603.75
2019-02-05T12:06:07.549Z,102608.39
2019-02-05T12:11:17.545Z,102605.36
2019-02-05T12:16:29.880Z,102600.50
2019-02-05T12:21:47.359Z,102598.06
2019-02-05T12:26:55.465Z,102591.69
2019-02-05T12:32:07.522Z,102599.85
2019-02-05T12:37:19.431Z,102595.44
2019-02-05T12:42:34.923Z,102592.91
2019-02-05T12:47:48.144Z,102588.52
2019-02-05T12:53:04.363Z,102589.15
2019-02-05T12:58:17.056Z,102586.05
2019-02-05T13:03:32.175Z,102580.00
2019-02-05T13:08:42.234Z,102578.42
2019-02-05T13:13:53.007Z,102586.27
2019-02-05T13:19:02.186Z,102584.38
2019-02-05T13:24:16.661Z,102581.42
2019-02-05T13:29:23.251Z,102573.27
2019-02-05T13:34:36.027Z,102573.42
2019-02-05T13:39:46.895Z,102573.86
2019-02-05T13:45:03.423Z,102575.20
2019-02-05T13:50:13.758Z,102578.69
2019-02-05T13:55:23.509Z,102576.97
2019-02-05T14:00:38.452Z,102583.04
2019-02-05T14:05:51.190Z,102589.52
2019-02-05T14:11:04.984Z,102589.46
2019-02-05T14:16:17.038Z,102592.53
2019-02-05T14:21:29.733Z,102584.31
2019-02-05T14:26:43.511Z,102584.27
2019-02-05T14:31:55.716Z,102579.34
2019-02-05T14:37:05.788Z,102581.48
2019-02-05T14:42:14.895Z,102585.67
2019-02-05T14:47:31.022Z,102588.66
2019-02-05T14:52:38.515Z,102582.22
2019-02-05T14:57:49.561Z,102575.78
2019-02-05T15:03:02.434Z,102566.22
2019-02-05T15:08:14.544Z,102567.83
2019-02-05T15:13:25.552Z,102565.21
2019-02-05T15:18:40.323Z,102564.33
2019-02-05T15:23:55.826Z,102562.55
2019-02-05T15:29:06.735Z,102560.42
2019-02-05T15:34:24.240Z,102553.86
2019-02-05T15:39:36.943Z,102556.53
2019-02-05T15:44:47.000Z,102553.94
2019-02-05T15:50:06.210Z,102553.11
2019-02-05T15:55:20.976Z,102557.00
2019-02-05T16:00:34.739Z,102556.11
2019-02-05T16:05:43.955Z,102554.40
2019-02-05T16:10:58.574Z,102550.97
2019-02-05T16:16:10.588Z,102553.52
2019-02-05T16:21:26.772Z,102550.02
2019-02-05T16:26:40.450Z,102550.02
2019-02-05T16:31:51.254Z,102564.40
2019-02-05T16:36:59.613Z,102560.91
2019-02-05T16:42:12.334Z,102568.27
2019-02-05T16:47:25.529Z,102561.31
2019-02-05T16:52:36.466Z,102563.96
2019-02-05T16:57:50.174Z,102558.32
2019-02-05T17:03:04.274Z,102550.48
2019-02-05T17:08:16.563Z,102550.50
2019-02-05T17:13:26.611Z,102554.08
2019-02-05T17:18:40.308Z,102543.62
2019-02-05T17:23:53.999Z,102541.06
2019-02-05T17:29:06.797Z,102550.62
2019-02-05T17:34:17.034Z,102537.97
2019-02-05T17:39:27.791Z,102532.76
2019-02-05T17:44:44.049Z,102515.88
2019-02-05T17:49:56.501Z,102516.26
2019-02-05T17:55:14.004Z,102511.05
2019-02-05T18:00:54.192Z,102508.84
2019-02-05T18:06:02.361Z,102508.02
2019-02-05T18:11:12.702Z,102506.30
2019-02-05T18:16:24.506Z,102502.84
2019-02-05T18:21:32.886Z,102499.44
2019-02-05T18:26:43.737Z,102499.48
2019-02-05T18:31:56.496Z,102496.79
2019-02-05T18:37:14.001Z,102495.13
2019-02-05T18:42:24.885Z,102492.88
2019-02-05T18:47:37.717Z,102499.77
2019-02-05T18:52:50.868Z,102505.83
2019-02-05T18:58:08.924Z,102514.91
2019-02-05T19:03:15.699Z,102503.22
2019-02-05T19:08:28.614Z,102498.43
2019-02-05T19:13:41.292Z,102501.81
2019-02-05T19:18:48.742Z,102493.98
2019-02-05T19:24:07.988Z,102496.53
2019-02-05T19:29:23.832Z,102493.05
2019-02-05T19:34:37.479Z,102496.89
2019-02-05T19:39:47.702Z,102494.69
2019-02-05T19:45:13.380Z,102495.45
2019-02-05T19:50:23.989Z,102492.02
2019-02-05T19:55:32.319Z,102493.79
2019-02-05T20:00:46.623Z,102498.94
2019-02-05T20:07:36.451Z,102498.09
2019-02-05T20:12:47.231Z,102496.41
2019-02-05T20:17:56.686Z,102492.78
2019-02-05T20:23:08.752Z,102483.20
2019-02-05T20:28:15.671Z,102476.30
2019-02-05T20:33:24.399Z,102479.44
2019-02-05T20:38:34.554Z,102485.98
2019-02-05T20:43:46.890Z,102486.84
2019-02-05T20:48:59.824Z,102485.55
2019-02-05T20:54:07.957Z,102478.15
2019-02-05T20:59:20.910Z,102483.20
2019-02-05T21:04:35.574Z,102483.65
2019-02-05T21:09:49.426Z,102480.23
2019-02-05T21:15:01.035Z,102477.25
2019-02-05T21:20:09.475Z,102468.62
2019-02-05T21:25:21.870Z,102467.70
2019-02-05T21:30:32.402Z,102467.70
2019-02-05T21:35:40.340Z,102462.02
2019-02-05T21:40:48.393Z,102454.23
2019-02-05T21:46:01.290Z,102452.52
2019-02-05T21:51:11.167Z,102450.81
2019-02-05T21:56:26.861Z,102455.50
2019-02-05T22:01:35.403Z,102452.77
2019-02-05T22:06:48.164Z,102451.78
2019-02-05T22:12:02.142Z,102447.41
2019-02-05T22:17:13.923Z,102437.34
2019-02-05T22:22:26.535Z,102429.48
2019-02-05T22:27:37.523Z,102427.13
2019-02-05T22:32:49.643Z,102428.80
2019-02-05T22:38:10.613Z,102432.67
2019-02-05T22:43:25.713Z,102428.42
2019-02-05T22:48:37.529Z,102426.31
2019-02-05T22:59:22.707Z,102428.92
2019-02-05T23:05:14.199Z,102416.77
2019-02-05T23:11:03.104Z,102405.47
2019-02-05T23:16:07.282Z,102397.61
2019-02-05T23:21:22.383Z,102389.34
2019-02-05T23:26:37.610Z,102384.59
2019-02-05T23:31:51.257Z,102381.56
2019-02-05T23:37:00.333Z,102371.65
2019-02-05T23:42:08.245Z,102380.78
2019-02-05T23:47:18.562Z,102370.85
2019-02-05T23:52:31.468Z,102374.27
2019-02-05T23:57:42.046Z,102369.50
